Terminal Aerodrome Forecast
Issued by NWS

Current Version | Previous Version | Text Only | Print | Product List | Glossary On
Versions: 1 2 3 4 5 6 7 8 9 10 11 12 13 14 15
567
FTUS46 KMTR 270527
TAFSJC
TAF
KSJC 270527Z 2706/2806 31009KT P6SM SCT020
     FM270700 29005KT P6SM BKN020
     FM271200 26005KT P6SM BKN017
     FM271700 30005KT P6SM SCT025
     FM272000 30012KT P6SM FEW030
     FM280400 31009KT P6SM SCT025=

USA.gov is the U.S. government's official web portal to all federal, state and local government web resources and services.